sensor_id;sensor_type;location;lat;lon;timestamp;temperature;humidity
20315;DHT22;10315;50.958;13.080;2023-04-03T00:02:01;0.90;99.90
20315;DHT22;10315;50.958;13.080;2023-04-03T00:12:03;0.70;99.90
20315;DHT22;10315;50.958;13.080;2023-04-03T00:22:06;0.70;99.90
20315;DHT22;10315;50.958;13.080;2023-04-03T00:32:07;0.70;99.90
20315;DHT22;10315;50.958;13.080;2023-04-03T00:42:11;0.70;99.90
20315;DHT22;10315;50.958;13.080;2023-04-03T00:52:15;0.50;99.90
20315;DHT22;10315;50.958;13.080;2023-04-03T01:02:18;0.50;99.90
20315;DHT22;10315;50.958;13.080;2023-04-03T01:12:22;0.40;99.90
20315;DHT22;10315;50.958;13.080;2023-04-03T01:22:28;0.40;99.90
20315;DHT22;10315;50.958;13.080;2023-04-03T01:32:33;0.20;99.90
20315;DHT22;10315;50.958;13.080;2023-04-03T01:42:35;0.20;99.90
20315;DHT22;10315;50.958;13.080;2023-04-03T01:52:37;0.10;99.90
20315;DHT22;10315;50.958;13.080;2023-04-03T02:02:39;0.00;99.90
20315;DHT22;10315;50.958;13.080;2023-04-03T02:12:42;-0.10;99.90
20315;DHT22;10315;50.958;13.080;2023-04-03T02:22:44;-0.30;99.90
20315;DHT22;10315;50.958;13.080;2023-04-03T02:32:46;-0.30;99.90
20315;DHT22;10315;50.958;13.080;2023-04-03T02:42:48;-0.50;99.90
20315;DHT22;10315;50.958;13.080;2023-04-03T02:52:51;-0.60;99.90
20315;DHT22;10315;50.958;13.080;2023-04-03T03:02:52;-0.80;99.90
20315;DHT22;10315;50.958;13.080;2023-04-03T03:12:55;-1.00;99.90
20315;DHT22;10315;50.958;13.080;2023-04-03T03:22:57;-1.20;99.90
20315;DHT22;10315;50.958;13.080;2023-04-03T03:33:00;-1.40;99.90
20315;DHT22;10315;50.958;13.080;2023-04-03T03:43:02;-1.60;99.90
20315;DHT22;10315;50.958;13.080;2023-04-03T03:53:05;-1.80;99.90
20315;DHT22;10315;50.958;13.080;2023-04-03T04:03:06;-2.00;99.90
20315;DHT22;10315;50.958;13.080;2023-04-03T04:13:12;-2.00;99.90
20315;DHT22;10315;50.958;13.080;2023-04-03T04:23:20;-2.20;99.90
20315;DHT22;10315;50.958;13.080;2023-04-03T04:33:23;-2.40;99.90
20315;DHT22;10315;50.958;13.080;2023-04-03T04:43:25;-2.50;99.90
20315;DHT22;10315;50.958;13.080;2023-04-03T04:53:28;-2.60;99.90
20315;DHT22;10315;50.958;13.080;2023-04-03T05:03:30;-2.60;99.90
20315;DHT22;10315;50.958;13.080;2023-04-03T05:13:33;-2.60;99.90
20315;DHT22;10315;50.958;13.080;2023-04-03T05:23:35;-2.40;99.90
20315;DHT22;10315;50.958;13.080;2023-04-03T05:33:38;-2.30;99.90
20315;DHT22;10315;50.958;13.080;2023-04-03T05:43:40;-2.20;99.90
20315;DHT22;10315;50.958;13.080;2023-04-03T05:53:43;-2.00;99.90
20315;DHT22;10315;50.958;13.080;2023-04-03T06:03:46;-1.80;99.90
20315;DHT22;10315;50.958;13.080;2023-04-03T06:13:48;-1.10;99.90
20315;DHT22;10315;50.958;13.080;2023-04-03T06:23:50;-0.80;99.90
20315;DHT22;10315;50.958;13.080;2023-04-03T06:33:53;-0.60;99.90
20315;DHT22;10315;50.958;13.080;2023-04-03T06:43:55;-0.30;99.90
20315;DHT22;10315;50.958;13.080;2023-04-03T06:54:00;-0.10;99.90
20315;DHT22;10315;50.958;13.080;2023-04-03T07:04:01;0.00;99.90
20315;DHT22;10315;50.958;13.080;2023-04-03T07:14:04;0.00;99.90
20315;DHT22;10315;50.958;13.080;2023-04-03T07:24:07;0.10;99.90
20315;DHT22;10315;50.958;13.080;2023-04-03T07:34:11;0.20;99.90
20315;DHT22;10315;50.958;13.080;2023-04-03T07:44:12;0.50;99.90
20315;DHT22;10315;50.958;13.080;2023-04-03T07:54:18;0.20;99.90
20315;DHT22;10315;50.958;13.080;2023-04-03T08:04:20;0.40;99.90
20315;DHT22;10315;50.958;13.080;2023-04-03T08:14:23;0.40;99.90
20315;DHT22;10315;50.958;13.080;2023-04-03T08:24:25;0.60;99.90
20315;DHT22;10315;50.958;13.080;2023-04-03T08:34:27;0.60;99.90
20315;DHT22;10315;50.958;13.080;2023-04-03T08:44:38;0.90;99.90
20315;DHT22;10315;50.958;13.080;2023-04-03T08:54:49;1.20;99.90
20315;DHT22;10315;50.958;13.080;2023-04-03T09:04:51;1.70;99.90
20315;DHT22;10315;50.958;13.080;2023-04-03T09:15:01;2.80;99.90
20315;DHT22;10315;50.958;13.080;2023-04-03T09:25:10;4.10;99.90
20315;DHT22;10315;50.958;13.080;2023-04-03T09:35:22;6.70;99.90
20315;DHT22;10315;50.958;13.080;2023-04-03T09:45:27;5.90;99.90
20315;DHT22;10315;50.958;13.080;2023-04-03T09:55:30;6.80;99.90
20315;DHT22;10315;50.958;13.080;2023-04-03T10:05:34;7.80;99.90
20315;DHT22;10315;50.958;13.080;2023-04-03T10:15:41;6.10;99.90
20315;DHT22;10315;50.958;13.080;2023-04-03T10:25:51;5.10;99.90
20315;DHT22;10315;50.958;13.080;2023-04-03T10:36:06;7.00;99.90
20315;DHT22;10315;50.958;13.080;2023-04-03T10:46:15;7.80;99.90
20315;DHT22;10315;50.958;13.080;2023-04-03T10:56:26;7.00;99.90
20315;DHT22;10315;50.958;13.080;2023-04-03T11:06:35;5.60;99.90
20315;DHT22;10315;50.958;13.080;2023-04-03T11:16:42;6.10;99.90
20315;DHT22;10315;50.958;13.080;2023-04-03T11:26:47;5.20;99.90
20315;DHT22;10315;50.958;13.080;2023-04-03T11:36:54;5.10;99.90
20315;DHT22;10315;50.958;13.080;2023-04-03T11:46:57;4.70;99.90
20315;DHT22;10315;50.958;13.080;2023-04-03T11:57:01;5.60;99.90
20315;DHT22;10315;50.958;13.080;2023-04-03T12:07:22;6.60;99.90
20315;DHT22;10315;50.958;13.080;2023-04-03T12:17:27;6.20;99.90
20315;DHT22;10315;50.958;13.080;2023-04-03T12:27:33;6.30;99.90
20315;DHT22;10315;50.958;13.080;2023-04-03T12:48:24;4.50;99.90
20315;DHT22;10315;50.958;13.080;2023-04-03T12:58:28;5.50;99.90
20315;DHT22;10315;50.958;13.080;2023-04-03T13:08:31;5.60;99.90
20315;DHT22;10315;50.958;13.080;2023-04-03T13:18:35;5.70;99.90
20315;DHT22;10315;50.958;13.080;2023-04-03T13:28:39;5.20;99.90
20315;DHT22;10315;50.958;13.080;2023-04-03T13:38:42;6.00;99.90
20315;DHT22;10315;50.958;13.080;2023-04-03T13:48:45;5.40;99.90
20315;DHT22;10315;50.958;13.080;2023-04-03T13:59:23;5.10;99.90
20315;DHT22;10315;50.958;13.080;2023-04-03T14:09:26;5.00;99.90
20315;DHT22;10315;50.958;13.080;2023-04-03T14:19:33;5.10;99.90
20315;DHT22;10315;50.958;13.080;2023-04-03T14:29:34;5.40;99.90
20315;DHT22;10315;50.958;13.080;2023-04-03T14:39:37;5.40;99.90
20315;DHT22;10315;50.958;13.080;2023-04-03T14:49:40;5.10;99.90
20315;DHT22;10315;50.958;13.080;2023-04-03T14:59:43;5.10;99.90
20315;DHT22;10315;50.958;13.080;2023-04-03T15:09:45;4.80;99.90
20315;DHT22;10315;50.958;13.080;2023-04-03T15:19:48;4.00;99.90
20315;DHT22;10315;50.958;13.080;2023-04-03T15:29:49;4.00;99.90
20315;DHT22;10315;50.958;13.080;2023-04-03T15:39:52;4.10;99.90
20315;DHT22;10315;50.958;13.080;2023-04-03T15:49:54;3.40;99.90
20315;DHT22;10315;50.958;13.080;2023-04-03T15:59:58;3.30;99.90
20315;DHT22;10315;50.958;13.080;2023-04-03T16:09:59;3.10;99.90
20315;DHT22;10315;50.958;13.080;2023-04-03T16:20:04;3.20;99.90
20315;DHT22;10315;50.958;13.080;2023-04-03T16:30:07;3.00;99.90
20315;DHT22;10315;50.958;13.080;2023-04-03T16:40:10;2.90;99.90
20315;DHT22;10315;50.958;13.080;2023-04-03T16:50:13;2.60;99.90
20315;DHT22;10315;50.958;13.080;2023-04-03T17:00:16;2.60;99.90
20315;DHT22;10315;50.958;13.080;2023-04-03T17:10:18;2.20;99.90
20315;DHT22;10315;50.958;13.080;2023-04-03T17:20:21;2.10;99.90
20315;DHT22;10315;50.958;13.080;2023-04-03T17:30:23;1.90;99.90
20315;DHT22;10315;50.958;13.080;2023-04-03T17:40:26;1.70;99.90
20315;DHT22;10315;50.958;13.080;2023-04-03T17:50:27;1.50;99.90
20315;DHT22;10315;50.958;13.080;2023-04-03T18:00:30;1.50;99.90
20315;DHT22;10315;50.958;13.080;2023-04-03T18:10:34;1.30;99.90
20315;DHT22;10315;50.958;13.080;2023-04-03T18:20:37;1.30;99.90
20315;DHT22;10315;50.958;13.080;2023-04-03T18:30:41;1.20;99.90
20315;DHT22;10315;50.958;13.080;2023-04-03T18:40:45;0.90;99.90
20315;DHT22;10315;50.958;13.080;2023-04-03T18:50:49;0.50;99.90
20315;DHT22;10315;50.958;13.080;2023-04-03T19:01:00;0.00;99.90
20315;DHT22;10315;50.958;13.080;2023-04-03T19:11:01;-0.30;99.90
20315;DHT22;10315;50.958;13.080;2023-04-03T19:21:04;-0.60;99.90
20315;DHT22;10315;50.958;13.080;2023-04-03T19:31:13;-0.90;99.90
20315;DHT22;10315;50.958;13.080;2023-04-03T19:41:19;-1.00;99.90
20315;DHT22;10315;50.958;13.080;2023-04-03T19:51:22;-0.90;99.90
20315;DHT22;10315;50.958;13.080;2023-04-03T20:01:25;-0.80;99.90
20315;DHT22;10315;50.958;13.080;2023-04-03T20:11:28;-0.70;99.90
20315;DHT22;10315;50.958;13.080;2023-04-03T20:21:32;-0.60;99.90
20315;DHT22;10315;50.958;13.080;2023-04-03T20:31:34;-0.40;99.90
20315;DHT22;10315;50.958;13.080;2023-04-03T20:41:41;-0.50;99.90
20315;DHT22;10315;50.958;13.080;2023-04-03T20:51:43;-0.30;99.90
20315;DHT22;10315;50.958;13.080;2023-04-03T21:01:45;-0.20;99.90
20315;DHT22;10315;50.958;13.080;2023-04-03T21:22:30;-0.20;99.90
20315;DHT22;10315;50.958;13.080;2023-04-03T21:32:32;-0.10;99.90
20315;DHT22;10315;50.958;13.080;2023-04-03T21:42:34;-0.10;99.90
20315;DHT22;10315;50.958;13.080;2023-04-03T21:52:36;-0.20;99.90
20315;DHT22;10315;50.958;13.080;2023-04-03T22:02:39;-0.20;99.90
20315;DHT22;10315;50.958;13.080;2023-04-03T22:12:44;0.00;99.90
20315;DHT22;10315;50.958;13.080;2023-04-03T22:22:49;0.10;99.90
20315;DHT22;10315;50.958;13.080;2023-04-03T22:32:51;0.00;99.90
20315;DHT22;10315;50.958;13.080;2023-04-03T22:42:54;-0.10;99.90
20315;DHT22;10315;50.958;13.080;2023-04-03T22:52:56;-0.20;99.90
20315;DHT22;10315;50.958;13.080;2023-04-03T23:02:59;-0.20;99.90
20315;DHT22;10315;50.958;13.080;2023-04-03T23:13:01;-0.10;99.90
20315;DHT22;10315;50.958;13.080;2023-04-03T23:23:04;-0.20;99.90
20315;DHT22;10315;50.958;13.080;2023-04-03T23:33:06;-0.20;99.90
20315;DHT22;10315;50.958;13.080;2023-04-03T23:43:09;-0.20;99.90
20315;DHT22;10315;50.958;13.080;2023-04-03T23:53:10;-0.10;99.90
